Time;durP1;ratioP1;P1;durP2;ratioP2;P2;SDS_P1;SDS_P2;PMS_P1;PMS_P2;Temp;Humidity;BMP_temperature;BMP_pressure;BME280_temperature;BME280_humidity;BME280_pressure;Samples;Min_cycle;Max_cycle;Signal;HPM_P1;HPM_P2
2022/03/01 00:01:16;;;;;;;9.17;7.37;;;;;;;2.62;69.65;102861.97;5134641;27;20023;-36
2022/03/01 00:03:41;;;;;;;8.73;7.10;;;;;;;2.63;72.68;102860.16;5137177;27;20114;-36
2022/03/01 00:06:08;;;;;;;9.27;6.70;;;;;;;2.72;73.93;102862.03;5138335;27;20019;-36
2022/03/01 00:08:33;;;;;;;9.98;7.88;;;;;;;2.53;71.19;102860.06;5138423;27;20031;-36
2022/03/01 00:10:59;;;;;;;9.93;7.73;;;;;;;2.56;73.80;102847.31;5138575;27;20412;-36
2022/03/01 00:13:25;;;;;;;;;;;;;;;2.72;71.68;102860.22;5139108;27;20030;-36
2022/03/01 00:15:50;;;;;;;9.18;7.03;;;;;;;2.54;72.05;102849.28;5138580;27;20275;-36
2022/03/01 00:18:15;;;;;;;9.43;7.20;;;;;;;2.73;76.49;102861.06;5138140;27;20038;-36
2022/03/01 00:20:41;;;;;;;8.47;6.77;;;;;;;2.70;74.44;102858.66;5138227;27;20440;-36
2022/03/01 00:23:06;;;;;;;10.13;6.60;;;;;;;2.68;74.56;102850.75;5138097;27;20190;-36
2022/03/01 00:25:31;;;;;;;9.30;6.77;;;;;;;2.62;74.47;102856.63;5138635;27;20357;-36
2022/03/01 00:27:57;;;;;;;10.20;7.23;;;;;;;2.47;73.02;102841.91;5137819;27;20058;-36
2022/03/01 00:30:22;;;;;;;10.17;7.37;;;;;;;2.56;74.61;102857.16;5138752;27;20027;-36
2022/03/01 00:32:48;;;;;;;10.18;7.53;;;;;;;2.39;72.43;102844.38;5138262;27;20130;-35
2022/03/01 00:35:14;;;;;;;10.40;8.50;;;;;;;2.33;72.43;102838.56;5137734;27;20043;-35
2022/03/01 00:37:39;;;;;;;9.30;7.50;;;;;;;2.42;75.82;102844.13;5138043;27;20034;-35
2022/03/01 00:40:05;;;;;;;8.87;7.17;;;;;;;2.48;76.41;102851.59;5137561;27;20105;-35
2022/03/01 00:42:31;;;;;;;9.00;6.93;;;;;;;2.47;76.71;102852.59;5137619;27;20056;-35
2022/03/01 00:44:56;;;;;;;8.15;7.28;;;;;;;2.38;77.09;102837.34;5138119;27;20023;-35
2022/03/01 00:47:21;;;;;;;9.50;8.17;;;;;;;2.25;73.00;102853.56;5137640;27;20038;-36
2022/03/01 00:49:47;;;;;;;8.90;7.60;;;;;;;2.04;73.45;102816.97;5138367;27;20450;-35
2022/03/01 00:52:12;;;;;;;10.90;8.47;;;;;;;2.15;75.71;102837.44;5137733;27;20027;-35
2022/03/01 00:54:37;;;;;;;10.13;7.63;;;;;;;2.33;78.10;102851.91;5137859;27;20038;-35
2022/03/01 00:57:03;;;;;;;10.10;8.63;;;;;;;2.14;73.28;102857.09;5137075;27;20023;-35
2022/03/01 00:59:28;;;;;;;10.95;8.52;;;;;;;2.08;74.32;102844.25;5137393;27;20034;-35
2022/03/01 01:01:54;;;;;;;9.47;7.60;;;;;;;2.17;77.00;102856.84;5137055;27;20394;-35
2022/03/01 01:04:19;;;;;;;10.27;8.40;;;;;;;2.09;75.54;102859.28;5137360;27;20077;-35
2022/03/01 01:06:44;;;;;;;10.93;8.23;;;;;;;2.16;75.91;102865.81;5137538;27;20118;-35
2022/03/01 01:09:12;;;;;;;10.73;8.03;;;;;;;2.15;76.64;102863.25;5137528;27;20110;-35
2022/03/01 01:11:38;;;;;;;10.13;7.75;;;;;;;2.10;76.45;102847.66;5137087;27;20031;-35
2022/03/01 01:14:04;;;;;;;10.15;7.60;;;;;;;2.17;78.08;102856.00;5135341;27;20460;-35
2022/03/01 01:16:29;;;;;;;9.65;8.35;;;;;;;2.10;76.06;102858.34;5136992;27;20034;-35
2022/03/01 01:18:55;;;;;;;11.23;8.43;;;;;;;2.12;77.10;102852.88;5136995;27;20023;-35
2022/03/01 01:21:21;;;;;;;8.82;7.53;;;;;;;2.11;77.75;102867.19;5136682;27;20038;-35
2022/03/01 01:23:46;;;;;;;10.10;8.15;;;;;;;2.09;77.61;102859.28;5137107;27;20026;-35
2022/03/01 01:26:12;;;;;;;11.93;8.80;;;;;;;2.06;76.53;102860.41;5136908;27;20134;-35
2022/03/01 01:28:37;;;;;;;9.63;7.93;;;;;;;2.02;76.04;102861.63;5136556;27;20027;-35
2022/03/01 01:31:03;;;;;;;10.47;8.40;;;;;;;2.00;75.53;102858.25;5137012;27;20088;-36
2022/03/01 01:33:28;;;;;;;11.57;8.40;;;;;;;1.86;74.47;102853.19;5136684;27;20451;-36
2022/03/01 01:35:54;;;;;;;9.27;6.93;;;;;;;1.95;78.59;102844.44;5137479;27;20051;-36
2022/03/01 01:38:19;;;;;;;10.47;8.33;;;;;;;1.90;77.03;102843.94;5134724;27;20493;-36
2022/03/01 01:40:45;;;;;;;10.97;8.47;;;;;;;2.01;76.37;102853.75;5136879;27;20027;-36
2022/03/01 01:43:10;;;;;;;12.45;8.80;;;;;;;1.87;74.57;102854.03;5136503;27;20055;-35
2022/03/01 01:45:35;;;;;;;10.23;7.60;;;;;;;1.92;77.53;102841.16;5136807;27;20102;-35
2022/03/01 01:48:02;;;;;;;14.70;9.40;;;;;;;1.83;74.46;102847.25;5136460;27;20034;-35
2022/03/01 01:50:30;;;;;;;14.27;9.30;;;;;;;1.85;75.01;102848.78;5136862;27;20047;-36
2022/03/01 01:52:56;;;;;;;9.95;8.35;;;;;;;1.81;74.77;102850.03;5136306;27;20066;-35
2022/03/01 01:55:22;;;;;;;;;;;;;;;1.94;74.53;102850.72;5136819;27;20420;-36
2022/03/01 01:57:48;;;;;;;11.23;7.95;;;;;;;1.84;75.09;102838.25;5135992;27;20394;-36
2022/03/01 02:00:15;;;;;;;10.50;8.05;;;;;;;1.89;74.46;102841.41;5136210;27;20023;-36
2022/03/01 02:02:41;;;;;;;12.38;8.65;;;;;;;1.87;73.76;102846.03;5136074;27;20085;-36
2022/03/01 02:05:08;;;;;;;11.50;9.10;;;;;;;1.83;73.50;102825.91;5136596;27;20393;-35
2022/03/01 02:07:34;;;;;;;13.18;8.70;;;;;;;1.96;75.01;102843.44;5136133;27;20122;-36
2022/03/01 02:09:59;;;;;;;13.40;9.40;;;;;;;1.97;73.57;102841.63;5136358;27;20375;-35
2022/03/01 02:12:25;;;;;;;12.20;8.17;;;;;;;1.92;73.13;102835.81;5135611;27;20023;-36
2022/03/01 02:14:50;;;;;;;12.40;8.95;;;;;;;2.01;72.87;102840.41;5135957;27;20023;-36
2022/03/01 02:17:18;;;;;;;10.33;8.13;;;;;;;1.87;72.28;102816.69;5135891;27;20369;-36
2022/03/01 02:19:51;;;;;;;12.15;8.48;;;;;;;1.97;71.91;102842.47;5135779;27;20071;-35
2022/03/01 02:22:17;;;;;;;13.00;9.30;;;;;;;1.93;72.71;102842.84;5135953;27;20352;-35
2022/03/01 02:24:42;;;;;;;;;;;;;;;2.05;72.96;102847.19;5136855;27;20363;-35
2022/03/01 02:27:07;;;;;;;10.07;7.97;;;;;;;1.98;73.80;102846.81;5135045;27;19918;-35
2022/03/01 02:29:33;;;;;;;10.93;8.17;;;;;;;2.01;74.61;102848.41;5136185;27;20356;-35
2022/03/01 02:32:05;;;;;;;11.60;8.63;;;;;;;1.86;73.30;102839.00;5135400;27;20360;-36
2022/03/01 02:34:30;;;;;;;11.90;8.57;;;;;;;1.90;73.42;102843.09;5136357;27;20023;-36
2022/03/01 02:36:55;;;;;;;11.43;8.17;;;;;;;1.90;74.25;102845.75;5135149;27;20054;-36
2022/03/01 02:39:21;;;;;;;11.03;8.50;;;;;;;1.89;73.33;102842.25;5135244;27;20547;-35
2022/03/01 02:41:47;;;;;;;11.65;8.45;;;;;;;1.90;74.08;102837.75;5135375;27;20027;-36
2022/03/01 02:44:13;;;;;;;10.45;8.63;;;;;;;1.88;73.98;102829.88;5135656;27;20059;-35
2022/03/01 02:46:39;;;;;;;;;;;;;;;1.96;73.27;102831.94;5135999;27;20447;-36
2022/03/01 02:49:06;;;;;;;11.13;8.20;;;;;;;1.86;73.79;102831.84;5135450;27;19921;-36
2022/03/01 02:51:32;;;;;;;10.85;8.70;;;;;;;1.73;72.93;102821.31;5135194;27;20378;-36
2022/03/01 02:53:57;;;;;;;11.18;8.65;;;;;;;1.76;73.81;102814.88;5135362;27;20027;-36
2022/03/01 02:56:23;;;;;;;12.97;8.30;;;;;;;1.79;73.55;102820.81;5134852;27;20022;-36
2022/03/01 02:58:48;;;;;;;14.52;9.52;;;;;;;1.83;73.34;102820.56;5135067;27;20023;-35
2022/03/01 03:01:14;;;;;;;12.33;9.00;;;;;;;1.79;72.81;102826.13;5135342;27;20057;-35
2022/03/01 03:03:39;;;;;;;11.07;8.73;;;;;;;1.83;73.16;102812.56;5135036;27;20459;-35
2022/03/01 03:06:04;;;;;;;12.63;8.87;;;;;;;1.77;74.08;102806.75;5135593;27;20156;-35
2022/03/01 03:08:31;;;;;;;10.53;7.97;;;;;;;1.86;74.21;102825.66;5134909;27;20035;-36
2022/03/01 03:10:56;;;;;;;13.25;9.23;;;;;;;1.80;73.60;102814.47;5135130;27;20405;-36
2022/03/01 03:13:21;;;;;;;12.17;8.53;;;;;;;1.80;73.35;102821.66;5134906;27;20052;-36
2022/03/01 03:15:47;;;;;;;14.20;10.20;;;;;;;1.81;73.39;102820.69;5134171;27;20467;-36
2022/03/01 03:18:14;;;;;;;12.52;9.57;;;;;;;1.74;74.06;102820.31;5134637;27;20160;-36
2022/03/01 03:20:39;;;;;;;12.25;8.95;;;;;;;1.79;75.46;102804.78;5135324;27;20027;-36
2022/03/01 03:23:05;;;;;;;11.57;8.90;;;;;;;1.85;73.88;102815.94;5134648;27;20031;-35
2022/03/01 03:25:31;;;;;;;10.77;7.90;;;;;;;1.76;72.54;102810.41;5134544;27;20038;-35
2022/03/01 03:27:56;;;;;;;10.07;8.27;;;;;;;1.88;73.22;102818.38;5134533;27;20044;-36
2022/03/01 03:30:22;;;;;;;10.73;8.60;;;;;;;1.87;72.63;102808.66;5134869;27;20482;-36
2022/03/01 03:32:47;;;;;;;11.63;8.45;;;;;;;1.80;72.65;102793.16;5134046;27;20027;-35
2022/03/01 03:35:13;;;;;;;11.73;8.73;;;;;;;1.80;72.26;102801.16;5135010;27;20043;-35
2022/03/01 03:37:38;;;;;;;14.17;8.33;;;;;;;1.84;74.32;102798.25;5133743;27;20119;-35
2022/03/01 03:40:04;;;;;;;13.43;8.80;;;;;;;1.95;74.33;102816.88;5134464;27;20099;-35
2022/03/01 03:42:30;;;;;;;;;;;;;;;2.00;73.40;102817.34;5134440;27;20473;-35
2022/03/01 03:44:55;;;;;;;10.38;8.43;;;;;;;1.95;72.98;102816.88;5134559;27;19912;-36
2022/03/01 03:47:21;;;;;;;11.47;8.33;;;;;;;1.96;72.57;102815.91;5133991;27;20479;-35
2022/03/01 03:49:47;;;;;;;11.67;8.57;;;;;;;1.98;73.62;102804.13;5134832;27;20038;-35
2022/03/01 03:52:12;;;;;;;11.05;8.77;;;;;;;1.92;71.88;102817.16;5134127;27;20038;-35
2022/03/01 03:54:38;;;;;;;10.73;8.77;;;;;;;1.85;72.00;102803.44;5135073;27;20352;-36
2022/03/01 03:57:08;;;;;;;11.27;8.30;;;;;;;1.81;73.29;102799.34;5134250;27;20019;-35
2022/03/01 03:59:34;;;;;;;12.77;9.23;;;;;;;1.86;72.80;102810.50;5134440;27;20034;-35
2022/03/01 04:02:01;;;;;;;11.07;8.65;;;;;;;1.86;71.67;102806.97;5133758;27;20020;-35
2022/03/01 04:04:26;;;;;;;12.75;9.00;;;;;;;1.97;72.42;102817.63;5134338;27;20478;-35
2022/03/01 04:06:51;;;;;;;11.90;8.43;;;;;;;1.97;73.22;102801.59;5133845;27;20030;-35
2022/03/01 04:09:16;;;;;;;11.27;8.43;;;;;;;2.00;73.75;102809.34;5133243;28;20031;-35
2022/03/01 04:11:42;;;;;;;11.17;7.93;;;;;;;2.03;73.63;102807.28;5134686;27;20030;-35
2022/03/01 04:14:08;;;;;;;11.80;8.40;;;;;;;2.04;72.63;102808.09;5133995;27;20019;-35
2022/03/01 04:16:33;;;;;;;10.55;8.13;;;;;;;1.97;73.33;102796.25;5134378;27;20387;-36
2022/03/01 04:18:59;;;;;;;10.97;8.53;;;;;;;2.02;71.47;102816.25;5132870;28;20075;-36
2022/03/01 04:21:24;;;;;;;12.47;9.20;;;;;;;2.01;71.86;102825.25;5134391;27;20068;-36
2022/03/01 04:23:49;;;;;;;9.97;8.27;;;;;;;1.97;71.75;102814.94;5133689;27;20096;-36
2022/03/01 04:26:15;;;;;;;10.57;8.03;;;;;;;2.13;76.20;102820.69;5134630;27;20027;-36
2022/03/01 04:28:41;;;;;;;15.40;8.20;;;;;;;1.95;72.98;102809.75;5133885;27;20031;-36
2022/03/01 04:31:06;;;;;;;11.60;8.27;;;;;;;2.09;75.56;102832.59;5133698;27;20383;-36
2022/03/01 04:33:31;;;;;;;12.57;8.37;;;;;;;1.87;73.23;102801.50;5133716;27;20462;-36
2022/03/01 04:35:59;;;;;;;11.90;8.57;;;;;;;2.10;73.83;102823.63;5134589;27;20068;-36
2022/03/01 04:38:25;;;;;;;12.45;8.57;;;;;;;2.16;75.44;102816.94;5133228;28;20027;-35
2022/03/01 04:40:52;;;;;;;10.60;8.00;;;;;;;2.12;73.20;102816.34;5133593;27;20027;-36
2022/03/01 04:43:18;;;;;;;12.77;8.75;;;;;;;2.05;73.19;102812.50;5133541;27;20120;-36
2022/03/01 04:45:43;;;;;;;13.68;9.65;;;;;;;2.01;73.74;102803.03;5134351;27;20039;-36
2022/03/01 04:48:09;;;;;;;11.97;9.00;;;;;;;2.11;74.07;102814.66;5134042;27;20029;-35
2022/03/01 04:50:34;;;;;;;10.10;8.50;;;;;;;2.09;72.87;102821.91;5138022;27;20019;-35
2022/03/01 04:52:59;;;;;;;11.13;8.50;;;;;;;2.11;73.51;102822.66;5137899;27;20049;-35
2022/03/01 04:55:25;;;;;;;10.30;8.73;;;;;;;2.00;71.66;102806.66;5137485;27;20348;-35
2022/03/01 04:57:50;;;;;;;12.33;8.87;;;;;;;2.10;72.12;102812.09;5137157;27;20034;-35
2022/03/01 05:00:15;;;;;;;10.23;8.13;;;;;;;2.04;71.53;102810.78;5137682;27;20030;-35
2022/03/01 05:02:44;;;;;;;11.23;8.37;;;;;;;2.05;71.51;102813.34;5138125;27;20023;-35
2022/03/01 05:05:12;;;;;;;13.80;8.77;;;;;;;1.96;71.55;102800.75;5137318;27;20068;-35
2022/03/01 05:07:40;;;;;;;10.18;8.43;;;;;;;2.05;72.24;102804.50;5136950;27;20056;-35
2022/03/01 05:10:08;;;;;;;11.77;8.27;;;;;;;2.06;73.20;102804.34;5137684;27;20387;-35
2022/03/01 05:12:53;;;;;;;11.68;9.15;;;;;;;2.14;74.34;102808.19;5137125;27;20027;-35
2022/03/01 05:15:21;;;;;;;10.20;7.90;;;;;;;2.03;71.67;102809.94;5137532;27;20106;-35
2022/03/01 05:17:47;;;;;;;13.45;9.15;;;;;;;2.05;71.71;102815.16;5136906;27;20027;-36
2022/03/01 05:20:15;;;;;;;12.50;8.55;;;;;;;2.05;71.99;102805.34;5137336;27;20058;-36
2022/03/01 05:22:41;;;;;;;12.90;8.82;;;;;;;2.07;74.07;102802.53;5136718;27;20649;-36
2022/03/01 05:25:11;;;;;;;12.18;8.90;;;;;;;1.80;72.65;102773.63;5136318;27;20067;-36
2022/03/01 05:27:38;;;;;;;11.60;9.25;;;;;;;2.02;73.47;102800.25;5137425;27;20055;-36
2022/03/01 05:30:08;;;;;;;12.15;8.57;;;;;;;2.08;74.12;102793.53;5137686;27;20074;-36
2022/03/01 05:32:34;;;;;;;12.18;8.73;;;;;;;1.92;74.33;102766.44;5136670;27;20348;-36
2022/03/01 05:35:02;;;;;;;10.35;8.18;;;;;;;1.95;73.17;102780.41;5137261;27;20027;-36
2022/03/01 05:37:27;;;;;;;14.02;9.07;;;;;;;1.94;72.81;102777.81;5137119;27;20023;-36
2022/03/01 05:39:52;;;;;;;13.47;9.83;;;;;;;1.93;73.03;102781.47;5136994;27;20466;-36
2022/03/01 05:42:18;;;;;;;13.10;9.33;;;;;;;1.95;73.92;102776.84;5136422;27;20269;-36
2022/03/01 05:44:43;;;;;;;13.93;8.90;;;;;;;1.91;72.74;102786.09;5136570;27;20094;-36
2022/03/01 05:47:09;;;;;;;11.32;9.02;;;;;;;1.80;72.93;102766.47;5136551;27;20026;-36
2022/03/01 05:49:34;;;;;;;13.93;9.67;;;;;;;1.95;74.07;102769.72;5136834;27;20067;-36
2022/03/01 05:52:00;;;;;;;11.63;8.73;;;;;;;1.94;74.14;102786.69;5136215;27;20042;-36
2022/03/01 05:54:25;;;;;;;13.07;9.20;;;;;;;1.80;73.66;102773.63;5135125;27;20043;-36
2022/03/01 05:56:50;;;;;;;12.90;9.50;;;;;;;1.83;73.86;102775.22;5136346;27;20037;-36
2022/03/01 05:59:16;;;;;;;11.07;8.07;;;;;;;1.89;76.66;102772.03;5136908;27;20026;-36
2022/03/01 06:01:41;;;;;;;14.37;10.27;;;;;;;1.86;74.35;102780.31;5135500;27;20058;-36
2022/03/01 06:04:06;;;;;;;13.37;9.40;;;;;;;1.83;74.84;102777.88;5136747;27;20070;-36
2022/03/01 06:06:32;;;;;;;11.63;8.93;;;;;;;1.68;74.36;102778.16;5136189;27;20494;-36
2022/03/01 06:08:57;;;;;;;14.90;10.70;;;;;;;1.78;75.57;102772.91;5136425;27;20483;-36
2022/03/01 06:11:22;;;;;;;12.13;9.40;;;;;;;1.72;74.25;102771.59;5135866;27;20047;-36
2022/03/01 06:13:48;;;;;;;14.37;10.00;;;;;;;1.67;74.88;102770.28;5135625;27;20019;-36
2022/03/01 06:16:13;;;;;;;14.53;9.63;;;;;;;1.59;75.48;102768.25;5136527;27;20028;-36
2022/03/01 06:18:39;;;;;;;11.77;9.63;;;;;;;1.56;74.24;102768.47;5135960;27;20455;-36
2022/03/01 06:21:05;;;;;;;12.00;10.03;;;;;;;1.47;73.85;102761.25;5136609;27;20031;-35
2022/03/01 06:23:31;;;;;;;11.52;9.48;;;;;;;1.73;76.17;102789.31;5135683;27;20506;-35
2022/03/01 06:25:57;;;;;;;12.05;9.68;;;;;;;1.80;79.16;102774.47;5136229;27;20031;-35
2022/03/01 06:28:22;;;;;;;11.97;9.10;;;;;;;1.89;79.41;102775.53;5135392;27;20034;-36
2022/03/01 06:30:48;;;;;;;12.60;9.40;;;;;;;1.88;78.47;102776.53;5135495;27;20024;-36
2022/03/01 06:33:13;;;;;;;17.00;9.30;;;;;;;1.93;79.15;102776.13;5135865;27;20027;-35
2022/03/01 06:35:39;;;;;;;13.15;9.23;;;;;;;1.97;79.58;102783.78;5135623;27;20047;-35
2022/03/01 06:38:04;;;;;;;11.87;8.20;;;;;;;2.00;80.63;102790.66;5135709;27;20405;-35
2022/03/01 06:40:30;;;;;;;10.67;8.57;;;;;;;2.04;81.41;102792.94;5135611;27;20157;-35
2022/03/01 06:42:56;;;;;;;11.17;9.00;;;;;;;2.05;80.49;102800.00;5135699;27;20686;-35
2022/03/01 06:45:22;;;;;;;11.95;9.85;;;;;;;2.01;78.55;102803.03;5136040;27;20030;-35
2022/03/01 06:47:47;;;;;;;12.25;9.38;;;;;;;2.15;81.43;102797.41;5135009;27;20027;-36
2022/03/01 06:50:13;;;;;;;12.50;9.83;;;;;;;2.10;79.04;102806.75;5135187;27;20379;-36
2022/03/01 06:52:38;;;;;;;11.90;9.20;;;;;;;2.16;78.93;102809.78;5134155;27;20304;-36
2022/03/01 06:55:06;;;;;;;11.30;9.10;;;;;;;2.18;80.10;102805.16;5135345;27;20410;-36
2022/03/01 06:57:32;;;;;;;13.45;9.93;;;;;;;2.07;77.67;102799.88;5134767;27;20075;-36
2022/03/01 06:59:58;;;;;;;13.95;9.25;;;;;;;2.10;76.24;102820.97;5135718;27;20511;-36
2022/03/01 07:02:26;;;;;;;15.33;10.33;;;;;;;2.06;75.14;102811.53;5135289;27;20024;-36
2022/03/01 07:04:53;;;;;;;13.48;9.73;;;;;;;2.12;75.20;102819.00;5134746;27;20027;-36
2022/03/01 07:07:18;;;;;;;13.80;10.15;;;;;;;2.09;76.57;102821.91;5134671;27;20494;-35
2022/03/01 07:09:43;;;;;;;11.27;9.77;;;;;;;2.14;75.00;102825.06;5135164;27;20019;-35
2022/03/01 07:12:09;;;;;;;12.73;9.77;;;;;;;2.02;73.61;102805.56;5135168;27;20051;-36
2022/03/01 07:14:35;;;;;;;11.27;9.52;;;;;;;2.18;74.16;102829.16;5134648;27;20100;-36
2022/03/01 07:17:00;;;;;;;11.40;9.60;;;;;;;2.20;73.69;102821.91;5134482;27;20027;-35
2022/03/01 07:19:25;;;;;;;15.00;10.37;;;;;;;2.31;73.62;102821.00;5135007;27;20424;-35
2022/03/01 07:21:51;;;;;;;11.83;9.30;;;;;;;2.36;73.47;102813.44;5134363;27;20048;-35
2022/03/01 07:24:16;;;;;;;12.53;10.10;;;;;;;2.42;72.97;102823.59;5134689;27;20356;-35
2022/03/01 07:26:41;;;;;;;13.87;10.20;;;;;;;2.41;72.82;102824.59;5134912;27;20031;-35
2022/03/01 07:29:07;;;;;;;12.23;9.73;;;;;;;2.42;72.94;102828.94;5134573;27;20113;-35
2022/03/01 07:31:33;;;;;;;13.27;10.15;;;;;;;2.47;72.56;102831.22;5134570;27;20015;-35
2022/03/01 07:33:58;;;;;;;16.40;10.60;;;;;;;2.53;73.09;102825.34;5134161;27;20027;-35
2022/03/01 07:36:23;;;;;;;11.67;9.83;;;;;;;2.53;71.37;102831.53;5135152;27;20122;-35
2022/03/01 07:38:49;;;;;;;11.13;9.53;;;;;;;2.50;71.59;102834.50;5134538;27;20026;-35
2022/03/01 07:41:14;;;;;;;12.23;9.70;;;;;;;2.61;72.35;102833.59;5134147;27;20399;-35
2022/03/01 07:43:39;;;;;;;12.17;9.97;;;;;;;2.70;72.46;102847.97;5134655;27;20150;-35
2022/03/01 07:46:10;;;;;;;13.80;10.07;;;;;;;2.69;71.62;102841.81;5134387;27;20279;-35
2022/03/01 07:48:36;;;;;;;12.70;9.70;;;;;;;2.58;70.26;102836.50;5134213;27;20043;-35
2022/03/01 07:51:02;;;;;;;12.98;10.05;;;;;;;2.62;71.15;102835.25;5135037;27;20038;-35
2022/03/01 07:53:27;;;;;;;12.43;10.23;;;;;;;2.69;72.69;102838.28;5134575;27;20363;-35
2022/03/01 07:55:52;;;;;;;13.37;10.70;;;;;;;2.56;71.03;102820.63;5134800;27;20094;-36
2022/03/01 07:58:18;;;;;;;16.17;10.13;;;;;;;2.68;72.49;102828.56;5134214;27;20029;-36
2022/03/01 08:00:43;;;;;;;11.53;9.43;;;;;;;2.68;72.34;102829.41;5134234;28;20028;-36
2022/03/01 08:03:09;;;;;;;14.37;10.27;;;;;;;2.68;72.25;102826.72;5133806;27;20030;-36
2022/03/01 08:05:34;;;;;;;12.07;9.90;;;;;;;2.66;72.31;102828.69;5133928;28;20463;-36
2022/03/01 08:07:59;;;;;;;11.57;9.70;;;;;;;2.70;73.54;102831.97;5132522;28;20058;-35
2022/03/01 08:10:26;;;;;;;11.63;9.97;;;;;;;2.65;72.72;102835.03;5134119;27;20073;-35
2022/03/01 08:12:51;;;;;;;13.05;9.98;;;;;;;2.62;72.59;102840.59;5133986;27;20020;-36
2022/03/01 08:15:16;;;;;;;13.80;10.10;;;;;;;2.71;72.64;102839.00;5134165;27;20041;-36
2022/03/01 08:17:55;;;;;;;12.13;9.50;;;;;;;2.76;72.87;102839.44;5133976;27;20027;-36
2022/03/01 08:20:21;;;;;;;13.73;10.18;;;;;;;2.82;73.40;102845.09;5134019;27;20027;-36
2022/03/01 08:22:47;;;;;;;13.35;9.85;;;;;;;2.97;75.69;102845.59;5133876;27;20039;-36
2022/03/01 08:25:13;;;;;;;12.47;9.90;;;;;;;2.92;72.51;102846.97;5138086;27;20102;-36
2022/03/01 08:27:38;;;;;;;12.27;9.70;;;;;;;3.04;72.74;102861.97;5138075;27;20034;-36
2022/03/01 08:30:05;;;;;;;11.73;9.30;;;;;;;3.09;73.62;102862.44;5138134;27;20027;-36
2022/03/01 08:32:31;;;;;;;15.35;9.95;;;;;;;3.15;72.61;102866.41;5137938;27;20031;-36
2022/03/01 08:34:56;;;;;;;14.50;10.07;;;;;;;3.13;74.58;102833.63;5137661;27;20478;-36
2022/03/01 08:37:21;;;;;;;11.63;9.63;;;;;;;3.35;74.70;102842.28;5138695;27;20253;-36
2022/03/01 08:39:47;;;;;;;12.17;9.10;;;;;;;3.36;74.76;102833.25;5138263;27;20034;-36
2022/03/01 08:42:12;;;;;;;12.30;9.80;;;;;;;3.38;72.55;102843.00;5136853;27;20585;-36
2022/03/01 08:44:37;;;;;;;13.57;10.23;;;;;;;3.38;71.78;102845.69;5138155;27;20052;-36
2022/03/01 08:47:03;;;;;;;12.70;10.43;;;;;;;3.51;72.65;102843.59;5137657;27;20027;-35
2022/03/01 08:49:28;;;;;;;13.27;10.50;;;;;;;3.59;72.69;102862.50;5138228;27;20459;-35
2022/03/01 08:51:54;;;;;;;11.20;9.27;;;;;;;3.57;73.78;102832.38;5137879;27;20370;-35
2022/03/01 08:54:19;;;;;;;13.52;10.40;;;;;;;3.76;72.93;102858.34;5137205;27;20026;-35
2022/03/01 08:56:44;;;;;;;14.63;10.43;;;;;;;3.93;73.01;102867.53;5137570;27;20034;-36
2022/03/01 08:59:10;;;;;;;12.43;10.03;;;;;;;4.03;71.63;102871.06;5137285;27;20027;-36
2022/03/01 09:01:35;;;;;;;13.37;10.73;;;;;;;4.13;72.42;102871.91;5137635;27;20076;-36
2022/03/01 09:04:01;;;;;;;12.43;10.53;;;;;;;4.05;72.06;102851.22;5137392;27;20035;-36
2022/03/01 09:06:27;;;;;;;16.23;11.77;;;;;;;4.26;70.03;102877.84;5137366;27;20023;-36
2022/03/01 09:08:52;;;;;;;14.80;11.43;;;;;;;4.35;70.01;102884.22;5137887;27;20031;-35
2022/03/01 09:11:17;;;;;;;15.30;11.07;;;;;;;4.43;68.38;102891.53;5135640;27;20403;-35
2022/03/01 09:13:43;;;;;;;12.53;9.87;;;;;;;4.53;68.60;102884.34;5136981;27;20099;-35
2022/03/01 09:16:09;;;;;;;11.33;9.40;;;;;;;4.65;67.92;102875.19;5137184;27;20034;-35
2022/03/01 09:18:35;;;;;;;12.23;9.48;;;;;;;4.89;66.97;102880.09;5137355;27;20027;-35
2022/03/01 09:21:01;;;;;;;14.35;9.73;;;;;;;4.99;67.32;102859.47;5137355;27;20031;-35
2022/03/01 09:23:27;;;;;;;12.52;9.13;;;;;;;5.14;67.13;102855.31;5136688;27;20035;-35
2022/03/01 09:25:52;;;;;;;11.30;9.33;;;;;;;5.21;67.37;102854.72;5137281;27;20023;-35
2022/03/01 09:28:17;;;;;;;13.57;9.70;;;;;;;5.21;65.18;102860.94;5136901;27;20038;-36
2022/03/01 09:30:43;;;;;;;11.03;8.73;;;;;;;5.18;65.87;102857.72;5137480;27;20116;-36
2022/03/01 09:33:09;;;;;;;12.10;9.32;;;;;;;5.12;64.71;102856.44;5136479;27;20031;-36
2022/03/01 09:35:35;;;;;;;13.23;10.23;;;;;;;5.15;65.08;102862.38;5135687;27;20046;-35
2022/03/01 09:38:00;;;;;;;11.50;9.10;;;;;;;5.20;66.58;102861.94;5137510;27;20039;-36
2022/03/01 09:40:25;;;;;;;10.47;8.43;;;;;;;5.28;66.26;102863.91;5136780;27;20046;-36
2022/03/01 09:42:52;;;;;;;12.82;8.85;;;;;;;5.29;66.30;102858.38;5135533;27;20039;-36
2022/03/01 09:45:18;;;;;;;12.23;8.88;;;;;;;5.35;65.72;102863.13;5136925;27;20027;-36
2022/03/01 09:47:43;;;;;;;11.93;9.82;;;;;;;5.40;65.21;102873.44;5136187;27;20023;-36
2022/03/01 09:50:10;;;;;;;12.53;8.97;;;;;;;5.47;65.50;102884.44;5137058;27;20023;-36
2022/03/01 09:52:36;;;;;;;10.27;8.45;;;;;;;5.47;65.80;102884.44;5136403;27;20408;-36
2022/03/01 09:55:03;;;;;;;10.13;8.02;;;;;;;5.48;63.19;102875.38;5136457;27;20035;-36
2022/03/01 09:57:28;;;;;;;11.50;8.95;;;;;;;5.53;63.12;102879.31;5136382;27;20379;-36
2022/03/01 09:59:54;;;;;;;10.03;8.47;;;;;;;5.56;64.41;102873.66;5136420;27;20029;-36
2022/03/01 10:02:19;;;;;;;10.17;8.83;;;;;;;5.59;63.99;102878.72;5136788;27;20455;-36
2022/03/01 10:04:57;;;;;;;12.15;8.95;;;;;;;5.63;63.70;102881.94;5136814;27;20099;-36
2022/03/01 10:07:28;;;;;;;11.45;9.05;;;;;;;5.61;63.22;102881.25;5136127;27;20023;-36
2022/03/01 10:09:55;;;;;;;13.63;8.75;;;;;;;5.65;64.44;102878.13;5136931;27;20421;-36
2022/03/01 10:12:24;;;;;;;10.27;9.18;;;;;;;5.64;63.05;102884.47;5135975;27;20027;-36
2022/03/01 10:15:03;;;;;;;11.40;9.45;;;;;;;5.66;62.95;102887.88;5136284;27;20031;-36
2022/03/01 10:17:43;;;;;;;10.23;9.10;;;;;;;5.63;62.90;102879.28;5136205;27;20034;-36
2022/03/01 10:20:11;;;;;;;11.07;9.00;;;;;;;5.77;63.56;102891.34;5136674;27;20023;-36
2022/03/01 10:22:44;;;;;;;10.50;8.52;;;;;;;5.77;63.09;102881.47;5135866;27;20118;-36
2022/03/01 10:25:14;;;;;;;10.05;8.63;;;;;;;5.89;62.81;102872.19;5135738;27;20173;-36
2022/03/01 10:27:39;;;;;;;12.23;8.50;;;;;;;5.92;62.64;102863.88;5135363;27;20027;-36
2022/03/01 10:30:07;;;;;;;10.45;8.60;;;;;;;5.93;63.19;102857.50;5136026;27;20080;-36
2022/03/01 10:32:33;;;;;;;11.90;9.13;;;;;;;6.02;62.61;102871.88;5135466;27;20451;-37
2022/03/01 10:35:09;;;;;;;10.27;8.75;;;;;;;6.08;62.78;102873.09;5135444;27;20027;-36
2022/03/01 10:37:37;;;;;;;11.05;8.77;;;;;;;6.18;62.41;102871.19;5136087;27;20035;-36
2022/03/01 10:40:19;;;;;;;14.65;9.65;;;;;;;6.18;61.20;102852.38;5134972;27;20383;-36
2022/03/01 10:42:46;;;;;;;12.95;9.95;;;;;;;6.31;61.60;102860.06;5134805;27;20019;-36
2022/03/01 10:45:12;;;;;;;10.68;8.85;;;;;;;6.34;60.98;102860.59;5133703;27;20027;-36
2022/03/01 10:47:50;;;;;;;14.35;8.88;;;;;;;6.45;62.13;102862.22;5134627;27;20379;-36
2022/03/01 10:50:16;;;;;;;20.10;10.57;;;;;;;6.55;61.04;102870.19;5134138;27;20054;-36
2022/03/01 10:52:42;;;;;;;11.53;9.13;;;;;;;6.58;59.36;102870.72;5134278;27;20050;-36
2022/03/01 10:55:28;;;;;;;10.02;8.93;;;;;;;6.81;61.07;102871.06;5134527;27;20027;-36
2022/03/01 10:58:10;;;;;;;10.68;8.77;;;;;;;6.86;61.56;102855.31;5132414;27;20031;-36
2022/03/01 11:00:37;;;;;;;21.77;10.80;;;;;;;7.06;60.93;102880.16;5132582;27;20081;-37
2022/03/01 11:03:06;;;;;;;13.13;9.40;;;;;;;7.10;58.82;102867.25;5134736;27;20072;-35
2022/03/01 11:05:32;;;;;;;12.07;8.93;;;;;;;7.21;59.72;102867.81;5135376;27;20042;-35
2022/03/01 11:08:08;;;;;;;13.73;9.75;;;;;;;7.15;57.71;102856.84;5134395;27;20027;-36
2022/03/01 11:10:36;;;;;;;54.88;13.38;;;;;;;7.19;59.49;102867.13;5134773;27;20023;-36
2022/03/01 11:13:01;;;;;;;11.40;8.80;;;;;;;7.28;59.22;102881.47;5134801;27;20030;-36
2022/03/01 11:15:52;;;;;;;11.23;8.30;;;;;;;7.39;62.31;102870.44;5134842;27;20031;-36
2022/03/01 11:18:20;;;;;;;13.52;9.95;;;;;;;7.34;59.95;102855.78;5134337;27;20015;-36
2022/03/01 11:20:49;;;;;;;10.98;9.27;;;;;;;7.40;57.37;102882.03;5134893;27;20105;-36
2022/03/01 11:23:23;;;;;;;11.43;9.20;;;;;;;7.46;59.38;102876.84;5133938;27;20035;-36